• Join FlightAware (Why Join?)
  • Login
  • US Flag GB Flag 
11:32 EDT


 

Airport Tracker/Info


-or-


 

Live Flight TrackerFlight Track Log ✈ EJM685 ✈ 24-Nov-2013 ✈ KTEB - KBWI

Flight Track Log - Related Links

Times and Time Zones

All times are in EST time to prevent confusion due to time zone crossing. See the EJM685 flight status page for this flight to view local times or setup timezone preferences in your user account.

Time Position Orientation Groundspeed Altitude Reporting Facility
EST Latitude Longitude Course Direction KTS MPH feet Rate Location/Type
10:15 40.8167 -74.1500 237° Southwest 195 224 4,600  Level New York TRACON
10:16 40.7833 -74.2167 237° Southwest 257 296 8,900 3,900 Climbing New York TRACON
10:17 40.7333 -74.3167 237° Southwest 321 369 12,900 2,460 Climbing New York TRACON
10:19 40.6444 -74.5017 238° Southwest 359 413 15,900 1,140 Climbing New York Center
10:20 40.6415 -74.3979 237° Southwest  Level Estimated
10:20 40.5928 -74.6108 238° Southwest 354 407 16,100  Level New York Center
10:21 40.5481 -74.7094 239° Southwest 333 383 17,500 900 Climbing New York Center
10:22 40.4989 -74.8075 237° Southwest 328 377 18,000 240 Climbing New York Center
10:23 40.4606 -74.8925 239° Southwest 323 372 18,000  Level New York Center
10:24 40.4111 -74.9878 236° Southwest 323 372 18,000  Level New York Center
10:25 40.3389 -75.0894 227° Southwest 344 396 18,000  Level New York Center
10:26 40.2728 -75.1806 226° Southwest 355 409 18,000  Level New York Center
10:27 40.2047 -75.2742 226° Southwest 361 415 18,000  Level New York Center
10:28 40.1386 -75.3678 227° Southwest 355 409 18,000  Level New York Center
10:29 40.0706 -75.4581 225° Southwest 355 409 18,000  Level New York Center
10:30 40.0042 -75.5511 227° Southwest 355 409 18,000  Level New York Center
10:31 39.9444 -75.6364 228° Southwest 361 415 18,000 -360 Level New York Center
10:32 39.8817 -75.7431 233° Southwest 355 409 17,300 -840 Descending New York Center
10:33 39.8272 -75.8447 235° Southwest 346 398 16,400 -1,140 Descending New York Center
10:34 39.7792 -75.9411 237° Southwest 339 390 15,100 -1,200 Descending New York Center
10:36 39.7122 -76.0423 237° Southwest  Level FlightAware Approximate
10:37 39.6500 -76.1833 237° Southwest 277 319 11,800  Level Potomac TRACON
10:38 39.6000 -76.2500 226° Southwest 289 333 10,600 -1,260 Descending Potomac TRACON
10:39 39.5333 -76.3000 210° Southwest 284 327 9,500 -840 Descending Potomac TRACON
10:40 39.4667 -76.3667 218° Southwest 280 322 9,000 -600 Descending Potomac TRACON
10:41 39.4000 -76.4167 210° Southwest 293 337 8,300 -1,200 Descending Potomac TRACON
10:42 39.3167 -76.4500 197° South 281 323 6,600 -1,560 Descending Potomac TRACON
10:43 39.2500 -76.4500 180° South 277 319 5,200 -1,500 Descending Potomac TRACON
10:43 39.1833 -76.4333 169° South 269 310 3,900 -1,140 Descending Potomac TRACON
10:44 39.1167 -76.4333 180° South 260 299 3,100 -480 Descending Potomac TRACON
10:45 39.0500 -76.4667 201° Southwest 232 267 3,000 -360 Descending Potomac TRACON
10:46 39.0500 -76.5333 270° West 163 188 2,500 -420 Descending Potomac TRACON
10:47 39.0667 -76.5667 303° West 144 166 2,300 -300 Descending Potomac TRACON
10:48 39.0833 -76.5833 322° Northwest 120 138 2,000 -420 Descending Potomac TRACON
10:49 39.1167 -76.6167 322° Northwest 111 128 1,500 -600 Descending Potomac TRACON
10:50 39.1333 -76.6333 322° Northwest 105 121 1,000 -720 Descending Potomac TRACON
10:51 39.1500 -76.6500 322° Northwest 112 129 300 -720 Descending Potomac TRACON